Creil Fafb, France

6:37 AM CET on January 18, 2017 (GMT +0100)
Charles de Gaulle | | Change Station

Elev 358 ft 49.02 °N, 2.53 °E | Updated 7 minutes ago

Clear
Clear
25 °F
Feels Like 12 °F
N
17
Wind Variable Wind from NNE
Gusts 30 mph

Today
High -- | Low -- °F
--% Chance of Precip.
Yesterday
High -- | Low -- °F
Precip. -- in
Pressure 30.54 in
Visibility -9999.0 miles
Clouds
Windchill 12 °F
Dew Point 19 °F
Humidity 80%
Rainfall 0.00 in
Snow Depth Not available.
8:37 AM 5:24 PM
Waning Gibbous, 66% visible
METAR LFPG 180530Z 03015G26KT CAVOK M04/M07 Q1034 NOSIG
Pressure 30.54 in
Visibility -9999.0 miles
Clouds
Windchill 12 °F
Dew Point 19 °F
Humidity 80%
Rainfall 0.00 in
Snow Depth Not available.
8:37 AM 5:24 PM
Waning Gibbous, 66% visible
METAR LFPG 180530Z 03015G26KT CAVOK M04/M07 Q1034 NOSIG

Get Your Daily Forecast Email!

Thanks for signing up!

Be on the lookout for a verification email in your inbox.

You'll start receiving the daily forecast at 8 AM.

×

10-Day Weather Forecast

×

Almanac

Astronomy

Jan. 18, 2017 Rise Set
Actual Time
Civil Twilight
Nautical Twilight
Astronomical Twilight
Moon
Length of Visible Light
Length of Day
Tomorrow will be .
, % of the Moon is Illuminated

Today's Extremes

Country Highs Country Lows

Community

WunderPhotos

Upload Photos

1,962,540 photos uploaded!

WunderBlog® & News

Nearby

Air Quality

  Air Quality AQ Index Pollutant
Not available.

Snow Depth

Station Depth Elevation

Earthquake Activity

City Distance Mag. Time & Date
Minimum magnitude displayed is 2.5.

Coastal Water Temperatures

Place Temperature

Stations

Nearby Weather Stations

Station Location Temp. Windchill Dew Point Humidity Wind Precip. Elev Updated Type